Time;durP1;ratioP1;P1;durP2;ratioP2;P2;SDS_P1;SDS_P2;PMS_P1;PMS_P2;Temp;Humidity;BMP_temperature;BMP_pressure;BME280_temperature;BME280_humidity;BME280_pressure;Samples;Min_cycle;Max_cycle;Signal;HPM_P1;HPM_P2
2023/04/26 00:00:56;;;;;;;4.60;4.13;;;;;;;;;;5032896;28;20440;-27
2023/04/26 00:03:24;;;;;;;6.20;4.80;;;;;;;;;;5015739;28;20227;-28
2023/04/26 00:05:51;;;;;;;6.60;4.40;;;;;;;;;;5031392;28;20214;-28
2023/04/26 00:08:18;;;;;;;4.83;4.33;;;;;;;;;;5032535;28;20194;-26
2023/04/26 00:10:45;;;;;;;5.50;4.23;;;;;;;;;;5024646;28;20221;-25
2023/04/26 00:13:14;;;;;;;5.97;4.17;;;;;;;;;;5035065;28;20339;-25
2023/04/26 00:15:41;;;;;;;6.87;4.50;;;;;;;;;;5043072;28;20226;-28
2023/04/26 00:18:08;;;;;;;5.10;4.33;;;;;;;;;;5022209;28;20202;-29
2023/04/26 00:20:35;;;;;;;6.07;4.53;;;;;;;;;;5026374;28;20217;-27
2023/04/26 00:23:02;;;;;;;6.43;4.70;;;;;;;;;;5047390;28;20223;-27
2023/04/26 00:25:31;;;;;;;8.17;5.20;;;;;;;;;;5023423;28;20219;-29
2023/04/26 00:27:58;;;;;;;5.20;4.70;;;;;;;;;;5017498;28;20305;-28
2023/04/26 00:30:27;;;;;;;6.30;4.40;;;;;;;;;;5039745;28;20194;-29
2023/04/26 00:32:54;;;;;;;6.33;5.07;;;;;;;;;;5030029;28;20206;-25
2023/04/26 00:35:24;;;;;;;6.27;5.10;;;;;;;;;;5020495;28;20199;-31
2023/04/26 00:37:51;;;;;;;6.20;4.50;;;;;;;;;;5043089;28;20311;-28
2023/04/26 00:40:19;;;;;;;6.03;4.87;;;;;;;;;;5046010;28;20210;-28
2023/04/26 00:42:46;;;;;;;6.47;4.53;;;;;;;;;;5023466;28;20214;-29
2023/04/26 00:45:13;;;;;;;6.00;5.10;;;;;;;;;;5031505;28;20487;-26
2023/04/26 00:47:42;;;;;;;6.13;4.63;;;;;;;;;;5023397;28;20211;-30
2023/04/26 00:50:09;;;;;;;5.70;4.37;;;;;;;;;;5019614;28;20205;-27
2023/04/26 00:52:37;;;;;;;5.80;5.20;;;;;;;;;;5040654;28;20225;-27
2023/04/26 00:55:05;;;;;;;6.30;4.47;;;;;;;;;;5042639;28;20222;-28
2023/04/26 00:57:32;;;;;;;5.73;4.80;;;;;;;;;;5031451;28;20203;-26
2023/04/26 00:59:59;;;;;;;5.07;4.13;;;;;;;;;;5042333;28;20206;-29
2023/04/26 01:02:26;;;;;;;4.80;3.97;;;;;;;;;;5021434;28;20207;-28
2023/04/26 01:04:55;;;;;;;5.40;4.20;;;;;;;;;;5020577;28;20230;-26
2023/04/26 01:07:22;;;;;;;6.40;5.17;;;;;;;;;;5042743;28;20236;-27
2023/04/26 01:09:49;;;;;;;5.07;4.43;;;;;;;;;;5051508;28;20482;-26
2023/04/26 01:12:17;;;;;;;5.70;4.90;;;;;;;;;;5024421;28;20211;-26
2023/04/26 01:14:44;;;;;;;5.57;4.27;;;;;;;;;;5041571;28;20223;-26
2023/04/26 01:17:12;;;;;;;6.67;4.87;;;;;;;;;;5028602;28;20262;-29
2023/04/26 01:19:47;;;;;;;6.47;4.83;;;;;;;;;;5025001;28;20202;-28
2023/04/26 01:22:16;;;;;;;6.10;4.07;;;;;;;;;;5030826;28;20205;-29
2023/04/26 01:24:46;;;;;;;6.50;4.67;;;;;;;;;;5030723;28;20265;-28
2023/04/26 01:27:13;;;;;;;4.40;3.97;;;;;;;;;;5030019;28;20202;-25
2023/04/26 01:29:40;;;;;;;7.37;5.07;;;;;;;;;;5032105;28;20202;-25
2023/04/26 01:32:07;;;;;;;5.60;4.60;;;;;;;;;;5038423;28;20273;-28
2023/04/26 01:34:34;;;;;;;6.90;4.53;;;;;;;;;;5025857;28;20258;-26
2023/04/26 01:37:01;;;;;;;6.07;3.93;;;;;;;;;;5037984;28;20230;-28
2023/04/26 01:39:28;;;;;;;6.17;4.83;;;;;;;;;;5030477;28;20210;-28
2023/04/26 01:41:59;;;;;;;5.17;4.30;;;;;;;;;;5024113;28;20514;-26
2023/04/26 01:44:26;;;;;;;5.43;4.20;;;;;;;;;;5037763;28;20321;-28
2023/04/26 01:46:53;;;;;;;5.70;4.37;;;;;;;;;;5048334;28;20210;-28
2023/04/26 01:49:20;;;;;;;5.90;4.53;;;;;;;;;;5018399;28;20203;-28
2023/04/26 01:51:47;;;;;;;5.50;4.60;;;;;;;;;;5039812;28;20209;-27
2023/04/26 01:54:14;;;;;;;6.97;4.30;;;;;;;;;;5051224;28;20226;-26
2023/04/26 01:56:42;;;;;;;7.30;4.57;;;;;;;;;;5038610;28;20242;-28
2023/04/26 01:59:10;;;;;;;4.63;4.10;;;;;;;;;;5023797;28;20208;-27
2023/04/26 02:01:37;;;;;;;5.70;4.57;;;;;;;;;;5037164;28;20207;-28
2023/04/26 02:04:05;;;;;;;6.20;4.60;;;;;;;;;;5014573;28;20231;-26
2023/04/26 02:06:32;;;;;;;5.30;4.10;;;;;;;;;;5027563;28;20283;-26
2023/04/26 02:08:59;;;;;;;7.00;4.27;;;;;;;;;;5050396;28;20272;-26
2023/04/26 02:11:26;;;;;;;8.67;4.20;;;;;;;;;;5033260;28;20234;-28
2023/04/26 02:13:54;;;;;;;6.47;4.33;;;;;;;;;;5033876;28;20225;-30
2023/04/26 02:16:22;;;;;;;6.17;4.30;;;;;;;;;;5035452;28;20288;-27
2023/04/26 02:18:49;;;;;;;5.77;4.57;;;;;;;;;;5024025;28;20301;-28
2023/04/26 02:21:17;;;;;;;5.67;4.03;;;;;;;;;;5037152;28;20201;-27
2023/04/26 02:23:45;;;;;;;4.20;3.80;;;;;;;;;;5050382;28;20230;-27
2023/04/26 02:26:12;;;;;;;5.50;3.97;;;;;;;;;;5041059;28;20227;-26
2023/04/26 02:28:39;;;;;;;5.97;3.90;;;;;;;;;;5032122;28;20279;-27
2023/04/26 02:31:06;;;;;;;4.70;3.90;;;;;;;;;;5023386;28;20203;-29
2023/04/26 02:33:35;;;;;;;6.77;4.10;;;;;;;;;;5023126;28;20294;-27
2023/04/26 02:36:03;;;;;;;7.37;3.83;;;;;;;;;;5045991;28;20217;-29
2023/04/26 02:38:31;;;;;;;4.70;4.17;;;;;;;;;;5052816;28;20671;-25
2023/04/26 02:40:59;;;;;;;5.03;4.20;;;;;;;;;;5038684;28;20285;-29
2023/04/26 02:55:14;;;;;;;6.10;3.73;;;;;;;;;;5028729;28;20444;-34
2023/04/26 02:57:41;;;;;;;3.70;3.33;;;;;;;;;;5024166;28;20203;-30
2023/04/26 03:00:08;;;;;;;6.50;4.10;;;;;;;;;;5011898;28;20206;-30
2023/04/26 03:02:36;;;;;;;4.80;4.30;;;;;;;;;;5018716;28;20211;-32
2023/04/26 03:05:03;;;;;;;6.80;4.20;;;;;;;;;;5016182;28;20260;-36
2023/04/26 03:07:30;;;;;;;4.23;3.90;;;;;;;;;;5013574;28;20203;-33
2023/04/26 03:09:57;;;;;;;5.50;4.60;;;;;;;;;;5010108;28;20203;-34
2023/04/26 03:12:26;;;;;;;5.47;4.03;;;;;;;;;;5017045;28;20281;-31
2023/04/26 03:14:53;;;;;;;4.77;4.00;;;;;;;;;;5012947;28;20227;-33
2023/04/26 03:17:20;;;;;;;4.40;3.97;;;;;;;;;;5013898;28;20585;-32
2023/04/26 03:19:47;;;;;;;5.10;4.60;;;;;;;;;;5024952;28;20213;-32
2023/04/26 03:22:16;;;;;;;7.07;4.97;;;;;;;;;;5024255;28;20561;-34
2023/04/26 03:24:44;;;;;;;7.17;4.33;;;;;;;;;;5030247;28;20233;-31
2023/04/26 03:27:11;;;;;;;4.00;3.60;;;;;;;;;;5021250;28;20209;-35
2023/04/26 03:29:39;;;;;;;5.53;4.67;;;;;;;;;;5014185;28;20658;-34
2023/04/26 03:32:07;;;;;;;6.03;4.40;;;;;;;;;;5012591;28;20677;-35
2023/04/26 03:34:34;;;;;;;5.00;4.10;;;;;;;;;;5022407;28;20310;-33
2023/04/26 03:37:03;;;;;;;8.80;4.27;;;;;;;;;;5028793;28;20213;-33
2023/04/26 03:39:30;;;;;;;7.20;4.60;;;;;;;;;;5029389;28;20268;-33
2023/04/26 03:41:57;;;;;;;9.10;4.07;;;;;;;;;;5024765;28;20230;-32
2023/04/26 03:44:24;;;;;;;4.33;3.80;;;;;;;;;;5014683;28;20228;-35
2023/04/26 03:46:52;;;;;;;4.67;4.03;;;;;;;;;;5016946;28;20666;-32
2023/04/26 03:49:20;;;;;;;5.20;4.47;;;;;;;;;;5019059;28;20203;-32
2023/04/26 03:51:47;;;;;;;4.63;3.97;;;;;;;;;;5021780;28;20211;-32
2023/04/26 03:54:14;;;;;;;5.97;4.07;;;;;;;;;;5033199;28;20727;-36
2023/04/26 03:56:41;;;;;;;7.50;4.13;;;;;;;;;;5021415;28;20262;-33
2023/04/26 03:59:09;;;;;;;7.13;4.63;;;;;;;;;;5026011;28;20440;-33
2023/04/26 04:01:36;;;;;;;5.47;4.10;;;;;;;;;;5020857;28;20207;-32
2023/04/26 04:04:05;;;;;;;5.43;3.83;;;;;;;;;;5020047;28;20226;-31
2023/04/26 04:06:32;;;;;;;4.93;4.37;;;;;;;;;;5032788;28;20227;-32
2023/04/26 04:08:59;;;;;;;5.10;4.03;;;;;;;;;;5026422;28;20187;-34
2023/04/26 04:11:27;;;;;;;4.17;3.73;;;;;;;;;;5027547;28;20215;-33
2023/04/26 04:13:55;;;;;;;4.57;3.63;;;;;;;;;;5016713;28;20227;-30
2023/04/26 04:16:22;;;;;;;4.47;3.77;;;;;;;;;;5019836;28;20725;-33
2023/04/26 04:18:49;;;;;;;5.47;4.40;;;;;;;;;;5018894;28;20695;-33
2023/04/26 04:21:18;;;;;;;4.10;3.70;;;;;;;;;;5022513;28;20207;-32
2023/04/26 04:23:45;;;;;;;6.60;3.93;;;;;;;;;;5022805;28;20226;-31
2023/04/26 04:26:20;;;;;;;8.00;3.73;;;;;;;;;;5022404;28;20313;-31
2023/04/26 04:28:47;;;;;;;6.47;3.33;;;;;;;;;;5029498;28;20221;-33
2023/04/26 04:31:16;;;;;;;4.30;3.70;;;;;;;;;;5022932;28;20230;-30
2023/04/26 04:33:43;;;;;;;4.77;3.97;;;;;;;;;;5017549;28;20234;-32
2023/04/26 04:36:10;;;;;;;6.13;4.60;;;;;;;;;;5023085;28;20199;-32
2023/04/26 04:38:39;;;;;;;5.87;4.20;;;;;;;;;;5026492;28;20294;-31
2023/04/26 04:41:07;;;;;;;8.23;3.80;;;;;;;;;;5029504;28;20315;-32
2023/04/26 04:43:34;;;;;;;6.43;4.00;;;;;;;;;;5022831;28;20248;-33
2023/04/26 04:46:01;;;;;;;4.23;3.80;;;;;;;;;;5021492;28;20219;-31
2023/04/26 04:48:28;;;;;;;5.43;4.17;;;;;;;;;;5020191;28;20214;-30
2023/04/26 04:50:57;;;;;;;5.13;4.17;;;;;;;;;;5021633;28;20297;-30
2023/04/26 04:53:24;;;;;;;5.10;3.90;;;;;;;;;;5018743;28;20235;-30
2023/04/26 04:55:52;;;;;;;5.43;4.30;;;;;;;;;;5025700;28;20191;-34
2023/04/26 04:58:21;;;;;;;6.77;5.00;;;;;;;;;;5032783;28;20575;-32
2023/04/26 05:00:49;;;;;;;6.90;4.67;;;;;;;;;;5025361;28;20327;-31
2023/04/26 05:03:16;;;;;;;6.63;5.20;;;;;;;;;;5029335;28;20608;-32
2023/04/26 05:05:43;;;;;;;7.43;5.17;;;;;;;;;;5032705;28;20226;-33
2023/04/26 05:08:10;;;;;;;15.60;5.53;;;;;;;;;;5034063;28;20199;-33
2023/04/26 05:10:37;;;;;;;7.43;4.97;;;;;;;;;;5025698;28;20227;-31
2023/04/26 05:13:06;;;;;;;8.43;5.00;;;;;;;;;;5033821;28;20226;-31
2023/04/26 05:15:33;;;;;;;6.60;4.87;;;;;;;;;;5034278;28;20238;-32
2023/04/26 05:18:00;;;;;;;5.70;4.53;;;;;;;;;;5027885;28;20210;-34
2023/04/26 05:20:28;;;;;;;8.17;5.00;;;;;;;;;;5033470;28;20217;-32
2023/04/26 05:22:55;;;;;;;11.40;4.77;;;;;;;;;;5014030;28;20211;-34
2023/04/26 05:25:22;;;;;;;9.70;4.93;;;;;;;;;;5016460;28;20227;-34
2023/04/26 05:27:50;;;;;;;5.80;4.40;;;;;;;;;;5017418;28;20210;-32
2023/04/26 05:30:18;;;;;;;7.17;4.67;;;;;;;;;;5019535;28;20565;-30
2023/04/26 05:32:45;;;;;;;6.30;5.33;;;;;;;;;;5013041;28;20214;-34
2023/04/26 05:35:12;;;;;;;7.03;5.27;;;;;;;;;;5018532;28;20206;-34
2023/04/26 05:37:39;;;;;;;7.63;5.33;;;;;;;;;;5013636;28;20203;-33
2023/04/26 05:40:08;;;;;;;8.40;5.23;;;;;;;;;;5012483;28;20211;-31
2023/04/26 05:42:35;;;;;;;8.93;5.40;;;;;;;;;;5020919;28;20207;-31
2023/04/26 05:45:02;;;;;;;7.67;5.17;;;;;;;;;;5014506;28;20226;-33
2023/04/26 05:47:31;;;;;;;6.53;4.70;;;;;;;;;;5016305;28;20228;-32
2023/04/26 05:49:58;;;;;;;5.37;4.50;;;;;;;;;;5020406;28;20746;-32
2023/04/26 05:52:25;;;;;;;8.33;5.37;;;;;;;;;;5027943;28;20209;-34
2023/04/26 05:54:52;;;;;;;6.10;4.63;;;;;;;;;;5032229;28;20226;-34
2023/04/26 05:57:19;;;;;;;10.60;5.47;;;;;;;;;;5030065;28;20215;-33
2023/04/26 05:59:47;;;;;;;8.70;5.47;;;;;;;;;;5021365;28;20298;-34
2023/04/26 06:02:14;;;;;;;7.13;5.77;;;;;;;;;;5024308;28;20206;-33
2023/04/26 06:04:42;;;;;;;9.77;5.50;;;;;;;;;;5031616;28;20233;-33
2023/04/26 06:07:10;;;;;;;7.10;5.70;;;;;;;;;;5026829;28;20219;-33
2023/04/26 06:09:37;;;;;;;6.33;5.20;;;;;;;;;;5013397;28;20298;-34
2023/04/26 06:12:04;;;;;;;9.43;5.00;;;;;;;;;;5013355;28;20223;-32
2023/04/26 06:14:31;;;;;;;7.27;5.60;;;;;;;;;;5019806;28;20229;-28
2023/04/26 06:16:59;;;;;;;6.87;5.90;;;;;;;;;;5022484;28;20220;-32
2023/04/26 06:19:26;;;;;;;9.07;6.27;;;;;;;;;;5013814;28;20642;-30
2023/04/26 06:21:55;;;;;;;7.97;5.90;;;;;;;;;;5028921;28;20201;-33
2023/04/26 06:24:23;;;;;;;10.23;5.67;;;;;;;;;;5012960;28;20266;-32
2023/04/26 06:26:50;;;;;;;6.63;5.13;;;;;;;;;;5021985;28;20215;-29
2023/04/26 06:29:18;;;;;;;6.53;5.13;;;;;;;;;;5033173;28;20207;-33
2023/04/26 06:31:45;;;;;;;7.17;5.30;;;;;;;;;;5028977;28;20676;-35
2023/04/26 06:34:12;;;;;;;7.00;5.43;;;;;;;;;;5016167;28;20230;-33
2023/04/26 06:36:39;;;;;;;10.60;6.17;;;;;;;;;;5020651;28;20217;-31
2023/04/26 06:39:07;;;;;;;7.63;5.70;;;;;;;;;;5012768;28;20273;-33
2023/04/26 06:41:35;;;;;;;6.87;5.47;;;;;;;;;;5015771;28;20218;-31
2023/04/26 06:44:02;;;;;;;8.27;6.17;;;;;;;;;;5021871;28;20257;-30
2023/04/26 06:46:29;;;;;;;8.40;5.70;;;;;;;;;;5024457;28;20262;-30
2023/04/26 06:48:56;;;;;;;8.13;5.90;;;;;;;;;;5022917;28;20231;-30
2023/04/26 06:51:23;;;;;;;8.73;6.43;;;;;;;;;;5011627;28;20226;-33
2023/04/26 06:53:51;;;;;;;8.57;6.40;;;;;;;;;;5012471;28;20231;-35
2023/04/26 06:56:19;;;;;;;9.90;6.80;;;;;;;;;;5011881;28;20306;-29
2023/04/26 06:59:00;;;;;;;8.33;6.20;;;;;;;;;;5020687;28;20203;-30
2023/04/26 07:01:28;;;;;;;11.13;7.47;;;;;;;;;;5019837;28;20199;-33
2023/04/26 07:03:56;;;;;;;7.97;6.03;;;;;;;;;;5014188;28;20641;-32
2023/04/26 07:06:23;;;;;;;8.07;6.03;;;;;;;;;;5028987;28;20708;-35
2023/04/26 07:08:50;;;;;;;7.83;6.00;;;;;;;;;;5032907;28;20203;-30
2023/04/26 07:11:17;;;;;;;9.27;6.27;;;;;;;;;;5029555;28;20237;-33
2023/04/26 07:13:46;;;;;;;8.90;6.63;;;;;;;;;;5019081;28;20233;-31
2023/04/26 07:16:13;;;;;;;10.50;6.50;;;;;;;;;;5024098;28;20194;-31
2023/04/26 07:18:40;;;;;;;8.27;6.63;;;;;;;;;;5014255;28;20298;-34
2023/04/26 07:21:07;;;;;;;7.50;6.50;;;;;;;;;;5018523;28;20214;-33
2023/04/26 07:23:35;;;;;;;7.40;6.60;;;;;;;;;;5012710;28;20724;-30
2023/04/26 07:26:03;;;;;;;10.50;6.97;;;;;;;;;;5015370;28;20560;-32
2023/04/26 07:28:30;;;;;;;9.93;7.07;;;;;;;;;;5026097;28;20234;-33
2023/04/26 07:30:59;;;;;;;10.00;7.27;;;;;;;;;;5028058;28;20205;-32
2023/04/26 07:33:26;;;;;;;11.07;7.13;;;;;;;;;;5026222;28;20305;-31
2023/04/26 07:35:57;;;;;;;7.37;6.23;;;;;;;;;;5025196;28;20237;-31
2023/04/26 07:38:24;;;;;;;7.83;6.17;;;;;;;;;;5036905;28;20206;-31
2023/04/26 07:40:52;;;;;;;7.60;6.37;;;;;;;;;;5036856;28;20297;-31
2023/04/26 07:43:19;;;;;;;8.13;6.40;;;;;;;;;;5023610;28;20223;-32
2023/04/26 07:45:46;;;;;;;9.77;6.70;;;;;;;;;;5020425;28;20224;-31
2023/04/26 07:48:15;;;;;;;8.90;6.43;;;;;;;;;;5022654;28;20657;-32
2023/04/26 07:50:42;;;;;;;8.60;6.10;;;;;;;;;;5032412;28;20206;-31
2023/04/26 07:53:09;;;;;;;7.40;5.90;;;;;;;;;;5035448;28;20232;-33
2023/04/26 07:55:37;;;;;;;7.60;5.23;;;;;;;;;;5034784;28;20207;-32
2023/04/26 07:58:04;;;;;;;6.73;5.57;;;;;;;;;;5022674;28;20214;-32
2023/04/26 08:00:31;;;;;;;7.07;4.97;;;;;;;;;;5018881;28;20210;-33
2023/04/26 08:02:58;;;;;;;9.53;4.37;;;;;;;;;;5029211;28;20232;-33
2023/04/26 08:05:26;;;;;;;7.40;4.67;;;;;;;;;;5018298;28;20294;-33
2023/04/26 08:07:54;;;;;;;6.60;3.77;;;;;;;;;;5025729;28;20223;-31
2023/04/26 08:10:21;;;;;;;6.00;4.13;;;;;;;;;;5025975;28;20208;-30
2023/04/26 08:12:48;;;;;;;5.57;4.10;;;;;;;;;;5024419;28;20214;-33
2023/04/26 08:15:15;;;;;;;7.27;4.50;;;;;;;;;;5035362;28;20209;-32
2023/04/26 08:17:42;;;;;;;7.60;4.63;;;;;;;;;;5031317;28;20209;-35
2023/04/26 08:20:10;;;;;;;5.73;4.60;;;;;;;;;;5015466;28;20205;-34
2023/04/26 08:22:38;;;;;;;7.67;4.17;;;;;;;;;;5031149;28;20207;-32
2023/04/26 08:25:06;;;;;;;8.47;4.47;;;;;;;;;;5032418;28;20229;-35
2023/04/26 08:27:33;;;;;;;6.33;4.20;;;;;;;;;;5023349;28;20221;-34
2023/04/26 08:30:00;;;;;;;6.27;3.73;;;;;;;;;;5021870;28;20700;-32
2023/04/26 08:32:28;;;;;;;5.57;3.53;;;;;;;;;;5014462;28;20229;-32
2023/04/26 08:34:55;;;;;;;4.63;4.00;;;;;;;;;;5022059;28;20646;-30
2023/04/26 08:37:22;;;;;;;4.57;3.50;;;;;;;;;;5027548;28;20644;-32
2023/04/26 08:39:51;;;;;;;7.70;3.40;;;;;;;;;;5015113;28;20207;-32
2023/04/26 08:42:18;;;;;;;4.57;3.80;;;;;;;;;;5015847;28;20213;-32
2023/04/26 08:44:46;;;;;;;5.77;3.33;;;;;;;;;;5024811;28;20232;-30
2023/04/26 08:52:34;;;;;;;8.13;3.77;;;;;;;;;;5037862;28;20199;-41
2023/04/26 08:55:11;;;;;;;7.40;3.80;;;;;;;;;;5014925;28;20226;-39
2023/04/26 08:57:40;;;;;;;6.40;3.67;;;;;;;;;;5030014;28;20300;-37
2023/04/26 09:00:11;;;;;;;9.23;4.07;;;;;;;;;;5033403;28;20203;-40
2023/04/26 09:02:41;;;;;;;4.87;3.60;;;;;;;;;;5025540;28;20216;-38
2023/04/26 09:05:09;;;;;;;3.57;2.90;;;;;;;;;;5019930;28;20213;-37
2023/04/26 09:07:40;;;;;;;4.73;2.97;;;;;;;;;;5031372;28;20310;-38
2023/04/26 09:10:11;;;;;;;8.30;3.80;;;;;;;;;;5018728;28;20206;-38
2023/04/26 09:12:50;;;;;;;5.20;2.90;;;;;;;;;;5026444;28;20207;-36
2023/04/26 09:15:26;;;;;;;5.67;2.93;;;;;;;;;;5034764;28;20206;-38
2023/04/26 09:24:08;;;;;;;3.60;2.67;;;;;;;;;;5022286;28;20281;-38
2023/04/26 09:27:10;;;;;;;7.67;2.83;;;;;;;;;;5020952;28;20211;-35
2023/04/26 09:29:41;;;;;;;5.63;2.97;;;;;;;;;;5033901;28;20209;-36
2023/04/26 09:32:10;;;;;;;5.00;2.80;;;;;;;;;;5030072;28;20213;-34
2023/04/26 09:34:54;;;;;;;4.83;2.70;;;;;;;;;;5031486;28;20235;-36
2023/04/26 09:37:35;;;;;;;7.50;3.53;;;;;;;;;;5034337;28;20196;-34
2023/04/26 09:40:05;;;;;;;3.20;2.90;;;;;;;;;;5033983;28;20235;-37
2023/04/26 09:42:46;;;;;;;6.47;3.07;;;;;;;;;;5025901;28;20209;-35
2023/04/26 09:45:22;;;;;;;5.60;2.97;;;;;;;;;;5033836;28;20196;-37
2023/04/26 09:47:54;;;;;;;5.77;2.60;;;;;;;;;;5022188;28;20241;-38
2023/04/26 09:50:32;;;;;;;4.30;2.97;;;;;;;;;;5016095;28;20214;-37
2023/04/26 09:53:07;;;;;;;6.13;3.30;;;;;;;;;;5026055;28;20202;-33
2023/04/26 09:55:37;;;;;;;3.10;2.70;;;;;;;;;;5033935;28;20206;-39
2023/04/26 09:58:11;;;;;;;6.47;2.83;;;;;;;;;;5023860;28;20211;-33
2023/04/26 10:00:44;;;;;;;3.37;2.87;;;;;;;;;;5030922;28;20209;-43
2023/04/26 10:03:12;;;;;;;4.27;2.67;;;;;;;;;;5019064;28;20281;-32
2023/04/26 10:05:44;;;;;;;3.53;2.80;;;;;;;;;;5016475;28;20299;-31
2023/04/26 10:08:12;;;;;;;4.13;2.50;;;;;;;;;;5032970;28;20234;-37
2023/04/26 10:10:44;;;;;;;3.53;2.50;;;;;;;;;;5029316;28;20210;-41
2023/04/26 10:13:12;;;;;;;4.87;2.70;;;;;;;;;;5022163;28;20310;-39
2023/04/26 10:15:42;;;;;;;3.50;2.30;;;;;;;;;;5032103;28;20211;-40
2023/04/26 10:18:09;;;;;;;5.43;2.47;;;;;;;;;;5029602;28;20203;-35
2023/04/26 10:20:43;;;;;;;4.03;2.30;;;;;;;;;;5032856;28;20215;-34
2023/04/26 10:23:19;;;;;;;4.27;2.40;;;;;;;;;;5033040;28;20250;-39
2023/04/26 10:25:51;;;;;;;3.17;2.60;;;;;;;;;;5029858;28;20211;-37
2023/04/26 10:28:20;;;;;;;3.03;2.20;;;;;;;;;;5027002;28;20220;-39
2023/04/26 10:31:00;;;;;;;3.17;1.80;;;;;;;;;;5025669;28;20213;-38
2023/04/26 10:33:27;;;;;;;2.60;2.07;;;;;;;;;;5019264;28;20223;-36
2023/04/26 10:36:02;;;;;;;4.50;2.13;;;;;;;;;;5024434;28;20203;-32
2023/04/26 10:38:34;;;;;;;4.63;2.23;;;;;;;;;;5032781;28;20266;-32
2023/04/26 10:41:20;;;;;;;8.10;2.67;;;;;;;;;;5030382;28;20207;-42
2023/04/26 10:43:48;;;;;;;3.37;2.20;;;;;;;;;;5031265;28;20229;-37
2023/04/26 10:46:33;;;;;;;4.63;2.40;;;;;;;;;;5013312;28;20267;-40
2023/04/26 10:49:17;;;;;;;3.13;2.80;;;;;;;;;;5006555;28;20217;-38
2023/04/26 10:52:00;;;;;;;4.23;2.07;;;;;;;;;;5031166;28;20238;-41
2023/04/26 10:54:45;;;;;;;3.27;2.03;;;;;;;;;;5024158;28;20230;-37
2023/04/26 10:57:14;;;;;;;5.63;2.17;;;;;;;;;;5019793;28;20286;-35
2023/04/26 10:59:42;;;;;;;3.03;2.07;;;;;;;;;;5034050;28;20226;-36
2023/04/26 11:02:11;;;;;;;3.67;2.30;;;;;;;;;;5034120;28;20207;-36
2023/04/26 11:05:00;;;;;;;4.40;2.10;;;;;;;;;;5026858;28;20233;-35
2023/04/26 11:07:38;;;;;;;3.03;2.23;;;;;;;;;;5035965;28;20260;-36
2023/04/26 11:10:23;;;;;;;4.70;2.40;;;;;;;;;;5035264;28;20220;-39
2023/04/26 11:13:03;;;;;;;5.00;2.30;;;;;;;;;;5034564;28;20231;-36
2023/04/26 11:15:31;;;;;;;3.70;2.00;;;;;;;;;;5036257;28;20289;-32
2023/04/26 11:17:59;;;;;;;1.97;1.70;;;;;;;;;;5031599;28;20208;-38
2023/04/26 11:20:32;;;;;;;4.60;2.07;;;;;;;;;;5029605;28;20252;-38
2023/04/26 11:23:00;;;;;;;3.03;1.80;;;;;;;;;;5024414;28;20294;-37
2023/04/26 11:25:28;;;;;;;3.67;1.77;;;;;;;;;;5019009;28;20207;-35
2023/04/26 11:28:02;;;;;;;3.33;1.87;;;;;;;;;;5026862;28;20222;-42
2023/04/26 11:30:30;;;;;;;4.30;2.13;;;;;;;;;;5035007;28;20202;-39
2023/04/26 11:32:58;;;;;;;2.73;1.90;;;;;;;;;;5027127;28;20206;-36
2023/04/26 11:35:26;;;;;;;4.70;2.10;;;;;;;;;;5034981;28;20197;-39
2023/04/26 11:38:00;;;;;;;1.90;1.80;;;;;;;;;;5034969;28;20207;-39
2023/04/26 11:40:35;;;;;;;4.37;1.90;;;;;;;;;;5029831;28;20208;-36
2023/04/26 11:43:06;;;;;;;5.43;1.97;;;;;;;;;;5021115;28;20315;-41
2023/04/26 11:45:34;;;;;;;3.77;2.00;;;;;;;;;;5035788;28;20203;-29
2023/04/26 11:48:02;;;;;;;3.03;1.93;;;;;;;;;;5025804;28;20223;-36
2023/04/26 11:50:31;;;;;;;3.80;1.93;;;;;;;;;;5031233;28;20203;-39
2023/04/26 11:53:01;;;;;;;2.33;2.13;;;;;;;;;;5034393;28;20213;-35
2023/04/26 11:55:38;;;;;;;6.47;1.90;;;;;;;;;;5035649;28;20211;-32
2023/04/26 11:58:12;;;;;;;2.93;2.23;;;;;;;;;;5027405;28;20227;-35
2023/04/26 12:00:56;;;;;;;4.43;1.97;;;;;;;;;;5025858;28;20211;-31
2023/04/26 12:03:26;;;;;;;6.00;1.90;;;;;;;;;;5029350;28;20233;-35
2023/04/26 12:06:15;;;;;;;3.87;2.00;;;;;;;;;;5035821;28;20202;-33
2023/04/26 12:08:56;;;;;;;4.80;1.97;;;;;;;;;;5035424;28;20247;-37
2023/04/26 12:11:30;;;;;;;2.10;1.77;;;;;;;;;;5028722;28;20211;-36
2023/04/26 12:14:06;;;;;;;2.90;1.93;;;;;;;;;;5035354;28;20221;-37
2023/04/26 12:16:38;;;;;;;3.70;1.97;;;;;;;;;;5034617;28;20206;-40
2023/04/26 12:19:10;;;;;;;3.13;1.63;;;;;;;;;;5020892;28;20225;-35
2023/04/26 12:21:44;;;;;;;3.90;1.70;;;;;;;;;;5034673;28;20217;-39
2023/04/26 12:24:37;;;;;;;2.50;1.77;;;;;;;;;;5035846;28;20235;-38
2023/04/26 12:27:07;;;;;;;2.80;1.77;;;;;;;;;;5001487;28;20329;-37
2023/04/26 12:29:57;;;;;;;2.33;1.83;;;;;;;;;;5031887;28;20214;-35
2023/04/26 12:32:28;;;;;;;2.17;1.97;;;;;;;;;;5029571;28;20275;-40
2023/04/26 12:35:00;;;;;;;2.97;1.97;;;;;;;;;;5018539;28;20273;-36
2023/04/26 12:37:27;;;;;;;4.70;2.07;;;;;;;;;;5035646;28;20186;-40
2023/04/26 12:39:58;;;;;;;4.90;2.47;;;;;;;;;;5023746;28;20203;-31
2023/04/26 12:42:27;;;;;;;3.37;2.03;;;;;;;;;;5027303;28;20208;-42
2023/04/26 12:44:54;;;;;;;3.73;2.00;;;;;;;;;;5026308;28;20258;-36
2023/04/26 12:47:23;;;;;;;6.03;1.87;;;;;;;;;;5030744;28;20287;-36
2023/04/26 12:49:51;;;;;;;5.40;2.37;;;;;;;;;;5034435;28;20200;-36
2023/04/26 12:52:19;;;;;;;4.03;2.07;;;;;;;;;;5033461;28;20230;-37
2023/04/26 12:54:56;;;;;;;4.13;2.07;;;;;;;;;;5030290;28;20304;-40
2023/04/26 12:57:26;;;;;;;3.97;2.10;;;;;;;;;;5033717;28;20200;-32
2023/04/26 13:00:03;;;;;;;2.17;1.73;;;;;;;;;;5033897;28;20234;-39
2023/04/26 13:02:47;;;;;;;3.90;1.27;;;;;;;;;;5031999;28;20265;-35
2023/04/26 13:05:18;;;;;;;3.97;2.30;;;;;;;;;;5033819;28;20204;-39
2023/04/26 13:07:57;;;;;;;2.53;1.80;;;;;;;;;;5033856;28;20225;-37
2023/04/26 13:10:55;;;;;;;5.10;2.53;;;;;;;;;;5034635;28;20207;-35
2023/04/26 13:13:34;;;;;;;3.10;2.37;;;;;;;;;;5089408;22;20237;-34
2023/04/26 13:16:05;;;;;;;3.47;2.67;;;;;;;;;;5062618;28;20640;-39
2023/04/26 13:18:39;;;;;;;6.43;2.70;;;;;;;;;;5069985;28;20210;-36
2023/04/26 13:21:20;;;;;;;4.47;2.10;;;;;;;;;;5069454;28;20198;-32
2023/04/26 13:23:51;;;;;;;2.50;2.30;;;;;;;;;;5067207;28;20317;-35
2023/04/26 13:26:27;;;;;;;2.57;2.27;;;;;;;;;;5049493;28;20202;-37
2023/04/26 13:29:03;;;;;;;2.30;2.10;;;;;;;;;;5057518;28;20213;-38
2023/04/26 13:31:33;;;;;;;3.03;2.20;;;;;;;;;;5048328;28;20206;-34
2023/04/26 13:34:21;;;;;;;3.53;2.10;;;;;;;;;;5050627;28;20221;-42
2023/04/26 13:39:27;;;;;;;3.17;2.47;;;;;;;;;;5032607;28;20243;-29
2023/04/26 13:42:06;;;;;;;5.63;2.30;;;;;;;;;;5035503;28;20214;-29
2023/04/26 13:44:38;;;;;;;3.77;2.53;;;;;;;;;;5011878;28;20229;-28
2023/04/26 13:47:20;;;;;;;2.70;2.10;;;;;;;;;;5005108;28;20235;-30
2023/04/26 13:50:01;;;;;;;2.30;2.10;;;;;;;;;;5017120;28;20239;-28
2023/04/26 13:52:40;;;;;;;5.93;2.40;;;;;;;;;;5025423;28;20202;-29
2023/04/26 13:55:15;;;;;;;3.77;2.13;;;;;;;;;;5005879;28;20226;-33
2023/04/26 13:57:54;;;;;;;2.23;2.03;;;;;;;;;;5009213;28;20251;-28
2023/04/26 14:00:26;;;;;;;2.30;1.90;;;;;;;;;;5017940;28;20668;-31
2023/04/26 14:03:11;;;;;;;2.70;1.73;;;;;;;;;;5003307;28;20214;-32
2023/04/26 14:05:47;;;;;;;7.13;1.90;;;;;;;;;;5018418;28;20284;-31
2023/04/26 14:08:17;;;;;;;3.70;2.20;;;;;;;;;;5013189;28;20218;-27
2023/04/26 14:10:48;;;;;;;1.90;1.80;;;;;;;;;;5005173;28;20201;-30
2023/04/26 14:13:20;;;;;;;2.53;1.90;;;;;;;;;;5009488;28;20225;-30
2023/04/26 14:16:03;;;;;;;2.33;1.50;;;;;;;;;;4998821;28;20214;-27
2023/04/26 14:18:34;;;;;;;2.10;1.90;;;;;;;;;;5004586;28;20214;-31
2023/04/26 14:21:10;;;;;;;3.03;2.10;;;;;;;;;;5029812;28;20199;-29
2023/04/26 14:23:49;;;;;;;8.60;2.03;;;;;;;;;;5032689;28;20237;-27
2023/04/26 14:26:29;;;;;;;5.20;1.80;;;;;;;;;;5020622;28;20209;-28
2023/04/26 14:29:04;;;;;;;2.90;1.90;;;;;;;;;;5017758;28;20232;-30
2023/04/26 14:31:51;;;;;;;2.90;1.83;;;;;;;;;;5011522;28;20199;-31
2023/04/26 14:34:37;;;;;;;3.43;2.20;;;;;;;;;;5015967;28;20224;-32
2023/04/26 14:37:11;;;;;;;4.73;2.17;;;;;;;;;;5012345;28;20215;-31
2023/04/26 14:39:54;;;;;;;3.13;1.80;;;;;;;;;;5008077;28;20302;-27
2023/04/26 14:42:22;;;;;;;3.93;2.10;;;;;;;;;;5001763;28;20250;-28
2023/04/26 14:44:54;;;;;;;3.80;2.33;;;;;;;;;;5019480;28;20223;-27
2023/04/26 14:49:50;;;;;;;2.20;2.00;;;;;;;;;;5024094;28;20314;-36
2023/04/26 14:52:18;;;;;;;3.10;2.00;;;;;;;;;;5025103;28;20234;-36
2023/04/26 14:54:45;;;;;;;10.20;2.47;;;;;;;;;;5014953;28;20250;-35
2023/04/26 14:57:13;;;;;;;4.50;2.17;;;;;;;;;;5013541;28;20203;-38
2023/04/26 14:59:41;;;;;;;2.53;1.73;;;;;;;;;;5013130;28;20217;-37
2023/04/26 15:02:08;;;;;;;2.53;2.13;;;;;;;;;;5012738;28;20241;-34
2023/04/26 15:04:36;;;;;;;2.73;1.97;;;;;;;;;;5020748;28;20307;-33
2023/04/26 15:07:03;;;;;;;9.83;2.10;;;;;;;;;;5020479;28;20260;-38
2023/04/26 15:09:32;;;;;;;3.67;2.10;;;;;;;;;;5032203;28;20226;-37
2023/04/26 15:11:59;;;;;;;5.53;2.30;;;;;;;;;;5026564;28;20212;-41
2023/04/26 15:14:26;;;;;;;1.97;1.80;;;;;;;;;;5022829;28;20547;-36
2023/04/26 15:16:53;;;;;;;2.30;1.63;;;;;;;;;;5017245;28;20245;-36
2023/04/26 15:19:20;;;;;;;3.20;1.80;;;;;;;;;;5022519;28;20199;-38
2023/04/26 15:21:48;;;;;;;4.00;2.03;;;;;;;;;;5016873;28;20265;-38
2023/04/26 15:24:15;;;;;;;1.97;1.73;;;;;;;;;;5021848;28;20432;-37
2023/04/26 15:26:43;;;;;;;2.70;2.13;;;;;;;;;;5018419;28;20219;-35
2023/04/26 15:29:11;;;;;;;3.23;1.93;;;;;;;;;;5012792;28;20224;-37